Lulea-Kallax, Sweden

9:01 PM CET on February 14, 2016 (GMT +0100)
Kallax Air Base | | Change Station
CLOSE
Current Station
Airport
Location: Lulea-Kallax,
Elevation: 112 ft
Nearby Weather Stations

Elev 112 ft 65.54 °N, 22.12 °E | Updated 11 minutes ago

Light Rain
Light Rain Snow
32 °F
Feels Like 29 °F
N
4
Wind Variable Wind from South

Today
High -- | Low -- °F
--% Chance of Precip.
Yesterday
High -- | Low -- °F
Precip. -- in
Pressure 29.59 in
Visibility 2.2 miles
Clouds
Windchill 29 °F
Dew Point 32 °F
Humidity 100%
Rainfall 0.00 in
Snow Depth Not available.
7:40 AM 3:52 PM
Waxing Crescent, 45% visible
METAR ESPA 141950Z 17003KT 3500 -RASN VV006 M00/M00 Q1002
Pressure 29.59 in
Visibility 2.2 miles
Clouds
Windchill 29 °F
Dew Point 32 °F
Humidity 100%
Rainfall 0.00 in
Snow Depth Not available.
7:40 AM 3:52 PM
Waxing Crescent, 45% visible
METAR ESPA 141950Z 17003KT 3500 -RASN VV006 M00/M00 Q1002

10-Day Weather Forecast

Almanac

Astronomy

Feb. 14, 2016 Rise Set
Actual Time
Civil Twilight
Nautical Twilight
Astronomical Twilight
Moon
Length of Visible Light
Length of Day
Tomorrow will be .
, % of the Moon is Illuminated

Today's Extremes

Country Highs Country Lows

Community

WunderPhotos

Upload Photos

1,892,880 photos uploaded!

WunderBlog® & News

Nearby

Air Quality

  Air Quality AQ Index Pollutant
Not available.

Snow Depth

Station Depth Elevation

Earthquake Activity

City Distance Mag. Time & Date
Minimum magnitude displayed is 2.5.

Coastal Water Temperatures

Place Temperature

Stations

Nearby Weather Stations

Station Location Temp. Windchill Dew Point Humidity Wind Precip. Elev Updated Type